sensor_id;sensor_type;location;lat;lon;timestamp;temperature;humidity
44509;DHT22;30214;52.246;14.408;2023-03-24T00:00:21;11.30;99.90
44509;DHT22;30214;52.246;14.408;2023-03-24T00:02:51;11.20;99.90
44509;DHT22;30214;52.246;14.408;2023-03-24T00:05:20;11.10;99.90
44509;DHT22;30214;52.246;14.408;2023-03-24T00:07:48;11.10;99.90
44509;DHT22;30214;52.246;14.408;2023-03-24T00:10:18;11.10;99.90
44509;DHT22;30214;52.246;14.408;2023-03-24T00:12:47;11.10;99.90
44509;DHT22;30214;52.246;14.408;2023-03-24T00:15:17;11.00;99.90
44509;DHT22;30214;52.246;14.408;2023-03-24T00:17:46;11.00;99.90
44509;DHT22;30214;52.246;14.408;2023-03-24T00:20:18;11.00;99.90
44509;DHT22;30214;52.246;14.408;2023-03-24T00:22:48;10.90;99.90
44509;DHT22;30214;52.246;14.408;2023-03-24T00:25:17;10.90;99.90
44509;DHT22;30214;52.246;14.408;2023-03-24T00:27:46;10.90;99.90
44509;DHT22;30214;52.246;14.408;2023-03-24T00:30:15;10.90;99.90
44509;DHT22;30214;52.246;14.408;2023-03-24T00:32:44;10.90;99.90
44509;DHT22;30214;52.246;14.408;2023-03-24T00:35:16;11.00;99.90
44509;DHT22;30214;52.246;14.408;2023-03-24T00:37:45;11.20;99.90
44509;DHT22;30214;52.246;14.408;2023-03-24T00:40:14;11.20;99.90
44509;DHT22;30214;52.246;14.408;2023-03-24T00:42:44;11.30;99.90
44509;DHT22;30214;52.246;14.408;2023-03-24T00:45:14;11.30;99.90
44509;DHT22;30214;52.246;14.408;2023-03-24T00:47:44;11.30;99.90
44509;DHT22;30214;52.246;14.408;2023-03-24T00:50:17;11.30;99.90
44509;DHT22;30214;52.246;14.408;2023-03-24T00:52:45;11.30;99.90
44509;DHT22;30214;52.246;14.408;2023-03-24T00:55:15;11.40;99.90
44509;DHT22;30214;52.246;14.408;2023-03-24T00:57:45;11.30;99.90
44509;DHT22;30214;52.246;14.408;2023-03-24T01:00:17;11.40;99.90
44509;DHT22;30214;52.246;14.408;2023-03-24T01:02:47;11.40;99.90
44509;DHT22;30214;52.246;14.408;2023-03-24T01:05:19;11.40;99.90
44509;DHT22;30214;52.246;14.408;2023-03-24T01:07:48;11.30;99.90
44509;DHT22;30214;52.246;14.408;2023-03-24T01:10:18;11.30;99.90
44509;DHT22;30214;52.246;14.408;2023-03-24T01:12:50;11.30;99.90
44509;DHT22;30214;52.246;14.408;2023-03-24T01:15:20;11.30;99.90
44509;DHT22;30214;52.246;14.408;2023-03-24T01:17:49;11.30;99.90
44509;DHT22;30214;52.246;14.408;2023-03-24T01:20:20;11.20;99.90
44509;DHT22;30214;52.246;14.408;2023-03-24T01:22:48;11.20;99.90
44509;DHT22;30214;52.246;14.408;2023-03-24T01:25:18;11.20;99.90
44509;DHT22;30214;52.246;14.408;2023-03-24T01:27:47;11.00;99.90
44509;DHT22;30214;52.246;14.408;2023-03-24T01:30:17;11.00;99.90
44509;DHT22;30214;52.246;14.408;2023-03-24T01:32:46;10.90;99.90
44509;DHT22;30214;52.246;14.408;2023-03-24T01:35:13;10.90;99.90
44509;DHT22;30214;52.246;14.408;2023-03-24T01:37:43;10.80;99.90
44509;DHT22;30214;52.246;14.408;2023-03-24T01:40:16;10.70;99.90
44509;DHT22;30214;52.246;14.408;2023-03-24T01:42:44;10.60;99.90
44509;DHT22;30214;52.246;14.408;2023-03-24T01:45:43;10.60;99.90
44509;DHT22;30214;52.246;14.408;2023-03-24T01:48:30;10.50;99.90
44509;DHT22;30214;52.246;14.408;2023-03-24T01:51:04;10.50;99.90
44509;DHT22;30214;52.246;14.408;2023-03-24T01:53:41;10.50;99.90
44509;DHT22;30214;52.246;14.408;2023-03-24T01:56:11;10.50;99.90
44509;DHT22;30214;52.246;14.408;2023-03-24T01:58:45;10.60;99.90
44509;DHT22;30214;52.246;14.408;2023-03-24T02:01:22;10.60;99.90
44509;DHT22;30214;52.246;14.408;2023-03-24T02:04:11;10.50;99.90
44509;DHT22;30214;52.246;14.408;2023-03-24T02:06:41;10.60;99.90
44509;DHT22;30214;52.246;14.408;2023-03-24T02:09:13;10.50;99.90
44509;DHT22;30214;52.246;14.408;2023-03-24T02:11:40;10.50;99.90
44509;DHT22;30214;52.246;14.408;2023-03-24T02:14:10;10.50;99.90
44509;DHT22;30214;52.246;14.408;2023-03-24T02:16:53;10.50;99.90
44509;DHT22;30214;52.246;14.408;2023-03-24T02:19:56;10.50;99.90
44509;DHT22;30214;52.246;14.408;2023-03-24T02:23:14;10.40;99.90
44509;DHT22;30214;52.246;14.408;2023-03-24T02:26:14;10.40;99.90
44509;DHT22;30214;52.246;14.408;2023-03-24T02:28:54;10.40;99.90
44509;DHT22;30214;52.246;14.408;2023-03-24T02:31:45;10.40;99.90
44509;DHT22;30214;52.246;14.408;2023-03-24T02:41:11;10.30;99.90
44509;DHT22;30214;52.246;14.408;2023-03-24T02:43:47;10.40;99.90
44509;DHT22;30214;52.246;14.408;2023-03-24T02:46:22;10.40;99.90
44509;DHT22;30214;52.246;14.408;2023-03-24T02:49:02;10.50;99.90
44509;DHT22;30214;52.246;14.408;2023-03-24T02:51:38;10.50;99.90
44509;DHT22;30214;52.246;14.408;2023-03-24T02:54:09;10.60;99.90
44509;DHT22;30214;52.246;14.408;2023-03-24T02:56:43;10.70;99.90
44509;DHT22;30214;52.246;14.408;2023-03-24T02:59:49;10.80;99.90
44509;DHT22;30214;52.246;14.408;2023-03-24T03:02:56;10.90;99.90
44509;DHT22;30214;52.246;14.408;2023-03-24T03:05:28;10.90;99.90
44509;DHT22;30214;52.246;14.408;2023-03-24T03:08:00;11.00;99.90
44509;DHT22;30214;52.246;14.408;2023-03-24T03:10:30;10.90;99.90
44509;DHT22;30214;52.246;14.408;2023-03-24T03:13:03;11.00;99.90
44509;DHT22;30214;52.246;14.408;2023-03-24T03:15:35;11.00;99.90
44509;DHT22;30214;52.246;14.408;2023-03-24T03:18:07;11.00;99.90
44509;DHT22;30214;52.246;14.408;2023-03-24T03:20:39;11.00;99.90
44509;DHT22;30214;52.246;14.408;2023-03-24T03:23:18;11.10;99.90
44509;DHT22;30214;52.246;14.408;2023-03-24T03:25:50;11.20;99.90
44509;DHT22;30214;52.246;14.408;2023-03-24T03:28:23;11.10;99.90
44509;DHT22;30214;52.246;14.408;2023-03-24T03:30:57;11.10;99.90
44509;DHT22;30214;52.246;14.408;2023-03-24T03:33:29;11.10;99.90
44509;DHT22;30214;52.246;14.408;2023-03-24T03:36:01;11.10;99.90
44509;DHT22;30214;52.246;14.408;2023-03-24T03:38:36;11.20;99.90
44509;DHT22;30214;52.246;14.408;2023-03-24T03:41:08;11.20;99.90
44509;DHT22;30214;52.246;14.408;2023-03-24T03:43:37;11.20;99.90
44509;DHT22;30214;52.246;14.408;2023-03-24T03:46:06;11.30;99.90
44509;DHT22;30214;52.246;14.408;2023-03-24T03:48:37;11.30;99.90
44509;DHT22;30214;52.246;14.408;2023-03-24T03:51:05;11.30;99.90
44509;DHT22;30214;52.246;14.408;2023-03-24T03:53:39;11.30;99.90
44509;DHT22;30214;52.246;14.408;2023-03-24T03:56:10;11.30;99.90
44509;DHT22;30214;52.246;14.408;2023-03-24T03:58:48;11.30;99.90
44509;DHT22;30214;52.246;14.408;2023-03-24T04:01:17;11.30;99.90
44509;DHT22;30214;52.246;14.408;2023-03-24T04:04:20;11.30;99.90
44509;DHT22;30214;52.246;14.408;2023-03-24T04:07:21;11.30;99.90
44509;DHT22;30214;52.246;14.408;2023-03-24T04:10:15;11.30;99.90
44509;DHT22;30214;52.246;14.408;2023-03-24T04:12:53;11.20;99.90
44509;DHT22;30214;52.246;14.408;2023-03-24T04:15:56;11.20;99.90
44509;DHT22;30214;52.246;14.408;2023-03-24T04:19:01;11.20;99.90
44509;DHT22;30214;52.246;14.408;2023-03-24T04:21:49;11.10;99.90
44509;DHT22;30214;52.246;14.408;2023-03-24T04:24:35;11.10;99.90
44509;DHT22;30214;52.246;14.408;2023-03-24T04:27:12;11.00;99.90
44509;DHT22;30214;52.246;14.408;2023-03-24T04:29:52;11.00;99.90
44509;DHT22;30214;52.246;14.408;2023-03-24T04:32:30;11.00;99.90
44509;DHT22;30214;52.246;14.408;2023-03-24T04:35:05;11.00;99.90
44509;DHT22;30214;52.246;14.408;2023-03-24T04:37:55;11.10;99.90
44509;DHT22;30214;52.246;14.408;2023-03-24T04:40:29;11.10;99.90
44509;DHT22;30214;52.246;14.408;2023-03-24T04:42:59;11.10;99.90
44509;DHT22;30214;52.246;14.408;2023-03-24T04:45:30;11.10;99.90
44509;DHT22;30214;52.246;14.408;2023-03-24T04:48:18;11.20;99.90
44509;DHT22;30214;52.246;14.408;2023-03-24T04:50:57;11.20;99.90
44509;DHT22;30214;52.246;14.408;2023-03-24T04:53:29;11.20;99.90
44509;DHT22;30214;52.246;14.408;2023-03-24T04:56:05;11.10;99.90
44509;DHT22;30214;52.246;14.408;2023-03-24T04:58:51;11.20;99.90
44509;DHT22;30214;52.246;14.408;2023-03-24T05:01:18;11.30;99.90
44509;DHT22;30214;52.246;14.408;2023-03-24T05:04:03;11.30;99.90
44509;DHT22;30214;52.246;14.408;2023-03-24T05:06:30;11.30;99.90
44509;DHT22;30214;52.246;14.408;2023-03-24T05:08:58;11.30;99.90
44509;DHT22;30214;52.246;14.408;2023-03-24T05:11:29;11.30;99.90
44509;DHT22;30214;52.246;14.408;2023-03-24T05:14:02;11.30;99.90
44509;DHT22;30214;52.246;14.408;2023-03-24T05:16:29;11.30;99.90
44509;DHT22;30214;52.246;14.408;2023-03-24T05:18:58;11.30;99.90
44509;DHT22;30214;52.246;14.408;2023-03-24T05:21:30;11.30;99.90
44509;DHT22;30214;52.246;14.408;2023-03-24T05:23:57;11.30;99.90
44509;DHT22;30214;52.246;14.408;2023-03-24T05:26:25;11.40;99.90
44509;DHT22;30214;52.246;14.408;2023-03-24T05:29:05;11.50;99.90
44509;DHT22;30214;52.246;14.408;2023-03-24T05:31:33;11.40;99.90
44509;DHT22;30214;52.246;14.408;2023-03-24T05:34:13;11.50;99.90
44509;DHT22;30214;52.246;14.408;2023-03-24T05:37:04;11.50;99.90
44509;DHT22;30214;52.246;14.408;2023-03-24T05:39:34;11.60;99.90
44509;DHT22;30214;52.246;14.408;2023-03-24T05:42:20;11.60;99.90
44509;DHT22;30214;52.246;14.408;2023-03-24T05:44:47;11.60;99.90
44509;DHT22;30214;52.246;14.408;2023-03-24T05:47:23;11.60;99.90
44509;DHT22;30214;52.246;14.408;2023-03-24T05:49:50;11.60;99.90
44509;DHT22;30214;52.246;14.408;2023-03-24T05:52:19;11.60;99.90
44509;DHT22;30214;52.246;14.408;2023-03-24T05:54:49;11.60;99.90
44509;DHT22;30214;52.246;14.408;2023-03-24T05:57:25;11.60;99.90
44509;DHT22;30214;52.246;14.408;2023-03-24T06:00:23;11.60;99.90
44509;DHT22;30214;52.246;14.408;2023-03-24T06:02:58;11.70;99.90
44509;DHT22;30214;52.246;14.408;2023-03-24T06:05:46;11.80;99.90
44509;DHT22;30214;52.246;14.408;2023-03-24T06:08:17;11.80;99.90
44509;DHT22;30214;52.246;14.408;2023-03-24T06:10:44;11.90;99.90
44509;DHT22;30214;52.246;14.408;2023-03-24T06:13:11;11.90;99.90
44509;DHT22;30214;52.246;14.408;2023-03-24T06:15:41;11.90;99.90
44509;DHT22;30214;52.246;14.408;2023-03-24T06:18:29;12.00;99.90
44509;DHT22;30214;52.246;14.408;2023-03-24T06:21:03;12.00;99.90
44509;DHT22;30214;52.246;14.408;2023-03-24T06:23:33;12.00;99.90
44509;DHT22;30214;52.246;14.408;2023-03-24T06:26:08;12.10;99.90
44509;DHT22;30214;52.246;14.408;2023-03-24T06:28:47;12.10;99.90
44509;DHT22;30214;52.246;14.408;2023-03-24T06:31:17;12.20;99.90
44509;DHT22;30214;52.246;14.408;2023-03-24T06:33:47;12.20;99.90
44509;DHT22;30214;52.246;14.408;2023-03-24T06:36:14;12.20;99.90
44509;DHT22;30214;52.246;14.408;2023-03-24T06:38:44;12.20;99.90
44509;DHT22;30214;52.246;14.408;2023-03-24T06:41:15;12.20;99.90
44509;DHT22;30214;52.246;14.408;2023-03-24T06:43:42;12.30;99.90
44509;DHT22;30214;52.246;14.408;2023-03-24T06:46:09;12.30;99.90
44509;DHT22;30214;52.246;14.408;2023-03-24T06:48:40;12.30;99.90
44509;DHT22;30214;52.246;14.408;2023-03-24T06:51:07;12.30;99.90
44509;DHT22;30214;52.246;14.408;2023-03-24T06:53:35;12.20;99.90
44509;DHT22;30214;52.246;14.408;2023-03-24T06:56:04;12.20;99.90
44509;DHT22;30214;52.246;14.408;2023-03-24T06:58:38;12.30;99.90
44509;DHT22;30214;52.246;14.408;2023-03-24T07:01:07;12.30;99.90
44509;DHT22;30214;52.246;14.408;2023-03-24T07:04:06;12.20;99.90
44509;DHT22;30214;52.246;14.408;2023-03-24T07:06:41;12.30;99.90
44509;DHT22;30214;52.246;14.408;2023-03-24T07:09:12;12.30;99.90
44509;DHT22;30214;52.246;14.408;2023-03-24T07:11:41;12.40;99.90
44509;DHT22;30214;52.246;14.408;2023-03-24T07:14:08;12.50;99.90
44509;DHT22;30214;52.246;14.408;2023-03-24T07:16:35;12.60;99.90
44509;DHT22;30214;52.246;14.408;2023-03-24T07:19:37;12.60;99.90
44509;DHT22;30214;52.246;14.408;2023-03-24T07:22:23;12.60;99.90
44509;DHT22;30214;52.246;14.408;2023-03-24T07:25:10;12.70;99.90
44509;DHT22;30214;52.246;14.408;2023-03-24T07:28:00;12.70;99.90
44509;DHT22;30214;52.246;14.408;2023-03-24T07:30:27;12.80;99.90
44509;DHT22;30214;52.246;14.408;2023-03-24T07:32:55;12.80;99.90
44509;DHT22;30214;52.246;14.408;2023-03-24T07:35:22;12.80;99.90
44509;DHT22;30214;52.246;14.408;2023-03-24T07:37:49;12.90;99.90
44509;DHT22;30214;52.246;14.408;2023-03-24T07:40:17;12.90;99.90
44509;DHT22;30214;52.246;14.408;2023-03-24T07:42:44;12.90;99.90
44509;DHT22;30214;52.246;14.408;2023-03-24T07:45:29;12.90;99.90
44509;DHT22;30214;52.246;14.408;2023-03-24T07:47:57;13.00;99.90
44509;DHT22;30214;52.246;14.408;2023-03-24T07:50:28;13.00;99.90
44509;DHT22;30214;52.246;14.408;2023-03-24T07:52:57;13.00;99.90
44509;DHT22;30214;52.246;14.408;2023-03-24T07:55:24;13.10;99.90
44509;DHT22;30214;52.246;14.408;2023-03-24T07:58:07;13.10;99.90
44509;DHT22;30214;52.246;14.408;2023-03-24T08:00:37;13.20;99.90
44509;DHT22;30214;52.246;14.408;2023-03-24T08:03:16;13.30;99.90
44509;DHT22;30214;52.246;14.408;2023-03-24T08:06:05;13.60;99.90
44509;DHT22;30214;52.246;14.408;2023-03-24T08:08:42;13.80;99.90
44509;DHT22;30214;52.246;14.408;2023-03-24T08:11:10;14.00;99.90
44509;DHT22;30214;52.246;14.408;2023-03-24T08:13:37;14.10;99.90
44509;DHT22;30214;52.246;14.408;2023-03-24T08:16:06;14.20;99.90
44509;DHT22;30214;52.246;14.408;2023-03-24T08:18:33;14.30;99.90
44509;DHT22;30214;52.246;14.408;2023-03-24T08:21:03;14.40;99.90
44509;DHT22;30214;52.246;14.408;2023-03-24T08:23:31;14.30;99.90
44509;DHT22;30214;52.246;14.408;2023-03-24T08:26:00;14.40;99.90
44509;DHT22;30214;52.246;14.408;2023-03-24T08:28:27;14.30;99.90
44509;DHT22;30214;52.246;14.408;2023-03-24T08:30:54;14.20;99.90
44509;DHT22;30214;52.246;14.408;2023-03-24T08:33:25;14.20;99.90
44509;DHT22;30214;52.246;14.408;2023-03-24T08:35:53;14.20;99.90
44509;DHT22;30214;52.246;14.408;2023-03-24T08:38:22;14.20;99.90
44509;DHT22;30214;52.246;14.408;2023-03-24T08:40:55;14.30;99.90
44509;DHT22;30214;52.246;14.408;2023-03-24T08:43:28;14.40;99.90
44509;DHT22;30214;52.246;14.408;2023-03-24T08:45:56;14.50;99.90
44509;DHT22;30214;52.246;14.408;2023-03-24T08:48:25;14.60;99.90
44509;DHT22;30214;52.246;14.408;2023-03-24T08:50:53;14.60;99.90
44509;DHT22;30214;52.246;14.408;2023-03-24T08:53:20;14.50;99.90
44509;DHT22;30214;52.246;14.408;2023-03-24T08:55:48;14.40;99.90
44509;DHT22;30214;52.246;14.408;2023-03-24T08:58:17;14.30;99.90
44509;DHT22;30214;52.246;14.408;2023-03-24T09:00:46;14.20;99.90
44509;DHT22;30214;52.246;14.408;2023-03-24T09:03:16;14.00;99.90
44509;DHT22;30214;52.246;14.408;2023-03-24T09:05:48;13.80;99.90
44509;DHT22;30214;52.246;14.408;2023-03-24T09:08:16;13.70;99.90
44509;DHT22;30214;52.246;14.408;2023-03-24T09:10:44;13.60;99.90
44509;DHT22;30214;52.246;14.408;2023-03-24T09:13:12;13.60;99.90
44509;DHT22;30214;52.246;14.408;2023-03-24T09:15:40;13.50;99.90
44509;DHT22;30214;52.246;14.408;2023-03-24T09:18:12;13.50;99.90
44509;DHT22;30214;52.246;14.408;2023-03-24T09:20:39;13.50;99.90
44509;DHT22;30214;52.246;14.408;2023-03-24T09:23:07;13.40;99.90
44509;DHT22;30214;52.246;14.408;2023-03-24T09:25:34;13.40;99.90
44509;DHT22;30214;52.246;14.408;2023-03-24T09:28:01;13.40;99.90
44509;DHT22;30214;52.246;14.408;2023-03-24T09:30:28;13.40;99.90
44509;DHT22;30214;52.246;14.408;2023-03-24T09:32:55;13.40;99.90
44509;DHT22;30214;52.246;14.408;2023-03-24T09:35:24;13.40;99.90
44509;DHT22;30214;52.246;14.408;2023-03-24T09:37:54;13.30;99.90
44509;DHT22;30214;52.246;14.408;2023-03-24T09:40:25;13.40;99.90
44509;DHT22;30214;52.246;14.408;2023-03-24T09:42:58;13.50;99.90
44509;DHT22;30214;52.246;14.408;2023-03-24T09:45:29;13.50;99.90
44509;DHT22;30214;52.246;14.408;2023-03-24T09:48:02;13.60;99.90
44509;DHT22;30214;52.246;14.408;2023-03-24T09:50:34;13.60;99.90
44509;DHT22;30214;52.246;14.408;2023-03-24T09:53:09;13.80;99.90
44509;DHT22;30214;52.246;14.408;2023-03-24T09:55:47;13.90;99.90
44509;DHT22;30214;52.246;14.408;2023-03-24T09:58:16;14.00;99.90
44509;DHT22;30214;52.246;14.408;2023-03-24T10:00:44;14.10;99.90
44509;DHT22;30214;52.246;14.408;2023-03-24T10:03:15;14.20;99.90
44509;DHT22;30214;52.246;14.408;2023-03-24T10:05:50;14.30;99.90
44509;DHT22;30214;52.246;14.408;2023-03-24T10:08:25;14.40;99.90
44509;DHT22;30214;52.246;14.408;2023-03-24T10:11:01;14.60;99.90
44509;DHT22;30214;52.246;14.408;2023-03-24T10:13:38;14.70;99.90
44509;DHT22;30214;52.246;14.408;2023-03-24T10:16:17;14.80;99.90
44509;DHT22;30214;52.246;14.408;2023-03-24T10:18:53;15.00;99.90
44509;DHT22;30214;52.246;14.408;2023-03-24T10:21:25;15.00;99.90
44509;DHT22;30214;52.246;14.408;2023-03-24T10:23:57;15.00;99.90
44509;DHT22;30214;52.246;14.408;2023-03-24T10:26:41;15.30;99.90
44509;DHT22;30214;52.246;14.408;2023-03-24T10:29:22;15.40;99.90
44509;DHT22;30214;52.246;14.408;2023-03-24T10:31:53;15.50;99.90
44509;DHT22;30214;52.246;14.408;2023-03-24T10:34:27;15.80;99.90
44509;DHT22;30214;52.246;14.408;2023-03-24T10:36:57;16.10;99.90
44509;DHT22;30214;52.246;14.408;2023-03-24T10:39:25;16.40;99.90
44509;DHT22;30214;52.246;14.408;2023-03-24T10:41:53;16.50;99.90
44509;DHT22;30214;52.246;14.408;2023-03-24T10:44:21;16.40;99.90
44509;DHT22;30214;52.246;14.408;2023-03-24T10:46:51;16.40;99.90
44509;DHT22;30214;52.246;14.408;2023-03-24T10:49:21;16.40;99.90
44509;DHT22;30214;52.246;14.408;2023-03-24T10:51:50;16.50;99.90
44509;DHT22;30214;52.246;14.408;2023-03-24T10:54:22;16.60;99.90
44509;DHT22;30214;52.246;14.408;2023-03-24T10:56:51;16.60;99.90
44509;DHT22;30214;52.246;14.408;2023-03-24T10:59:31;16.50;99.90
44509;DHT22;30214;52.246;14.408;2023-03-24T11:02:14;16.50;99.90
44509;DHT22;30214;52.246;14.408;2023-03-24T11:04:48;16.60;99.90
44509;DHT22;30214;52.246;14.408;2023-03-24T11:07:19;16.50;99.90
44509;DHT22;30214;52.246;14.408;2023-03-24T11:09:57;16.50;99.90
44509;DHT22;30214;52.246;14.408;2023-03-24T11:12:29;16.50;99.90
44509;DHT22;30214;52.246;14.408;2023-03-24T11:15:16;16.60;99.90
44509;DHT22;30214;52.246;14.408;2023-03-24T11:17:45;16.60;99.90
44509;DHT22;30214;52.246;14.408;2023-03-24T11:20:17;16.60;99.90
44509;DHT22;30214;52.246;14.408;2023-03-24T11:22:55;16.60;99.90
44509;DHT22;30214;52.246;14.408;2023-03-24T11:25:25;16.50;99.90
44509;DHT22;30214;52.246;14.408;2023-03-24T11:27:58;16.50;99.90
44509;DHT22;30214;52.246;14.408;2023-03-24T11:30:33;16.40;99.90
44509;DHT22;30214;52.246;14.408;2023-03-24T11:33:02;16.30;99.90
44509;DHT22;30214;52.246;14.408;2023-03-24T11:35:30;16.20;99.90
44509;DHT22;30214;52.246;14.408;2023-03-24T11:38:03;16.30;99.90
44509;DHT22;30214;52.246;14.408;2023-03-24T11:40:31;16.30;99.90
44509;DHT22;30214;52.246;14.408;2023-03-24T11:43:00;16.30;99.90
44509;DHT22;30214;52.246;14.408;2023-03-24T11:45:35;16.40;99.90
44509;DHT22;30214;52.246;14.408;2023-03-24T11:48:13;16.50;99.90
44509;DHT22;30214;52.246;14.408;2023-03-24T11:50:47;16.50;99.90
44509;DHT22;30214;52.246;14.408;2023-03-24T11:53:16;16.40;99.90
44509;DHT22;30214;52.246;14.408;2023-03-24T11:55:51;16.30;99.90
44509;DHT22;30214;52.246;14.408;2023-03-24T11:58:26;16.20;99.90
44509;DHT22;30214;52.246;14.408;2023-03-24T12:00:59;16.10;99.90
44509;DHT22;30214;52.246;14.408;2023-03-24T12:04:02;16.10;99.90
44509;DHT22;30214;52.246;14.408;2023-03-24T12:06:45;15.90;99.90
44509;DHT22;30214;52.246;14.408;2023-03-24T12:09:21;15.70;99.90
44509;DHT22;30214;52.246;14.408;2023-03-24T12:12:01;15.50;99.90
44509;DHT22;30214;52.246;14.408;2023-03-24T12:14:38;15.40;99.90
44509;DHT22;30214;52.246;14.408;2023-03-24T12:17:15;15.40;99.90
44509;DHT22;30214;52.246;14.408;2023-03-24T12:19:58;15.40;99.90
44509;DHT22;30214;52.246;14.408;2023-03-24T12:22:49;15.40;99.90
44509;DHT22;30214;52.246;14.408;2023-03-24T12:25:35;15.40;99.90
44509;DHT22;30214;52.246;14.408;2023-03-24T12:28:24;15.30;99.90
44509;DHT22;30214;52.246;14.408;2023-03-24T12:31:09;15.40;99.90
44509;DHT22;30214;52.246;14.408;2023-03-24T12:33:51;15.50;99.90
44509;DHT22;30214;52.246;14.408;2023-03-24T12:36:30;15.50;99.90
44509;DHT22;30214;52.246;14.408;2023-03-24T12:39:09;15.50;99.90
44509;DHT22;30214;52.246;14.408;2023-03-24T12:41:53;15.40;99.90
44509;DHT22;30214;52.246;14.408;2023-03-24T12:48:07;15.30;99.90
44509;DHT22;30214;52.246;14.408;2023-03-24T12:50:55;15.20;99.90
44509;DHT22;30214;52.246;14.408;2023-03-24T12:53:37;15.20;99.90
44509;DHT22;30214;52.246;14.408;2023-03-24T12:56:22;15.20;99.90
44509;DHT22;30214;52.246;14.408;2023-03-24T12:59:15;15.40;99.90
44509;DHT22;30214;52.246;14.408;2023-03-24T13:01:51;15.40;99.90
44509;DHT22;30214;52.246;14.408;2023-03-24T13:04:28;15.40;99.90
44509;DHT22;30214;52.246;14.408;2023-03-24T13:07:04;15.30;99.90
44509;DHT22;30214;52.246;14.408;2023-03-24T13:09:42;15.20;99.90
44509;DHT22;30214;52.246;14.408;2023-03-24T13:12:15;15.20;99.90
44509;DHT22;30214;52.246;14.408;2023-03-24T13:14:50;15.10;99.90
44509;DHT22;30214;52.246;14.408;2023-03-24T13:17:25;15.20;99.90
44509;DHT22;30214;52.246;14.408;2023-03-24T13:19:56;15.20;99.90
44509;DHT22;30214;52.246;14.408;2023-03-24T13:22:26;15.20;99.90
44509;DHT22;30214;52.246;14.408;2023-03-24T13:24:55;15.20;99.90
44509;DHT22;30214;52.246;14.408;2023-03-24T13:27:23;15.20;99.90
44509;DHT22;30214;52.246;14.408;2023-03-24T13:30:14;15.20;99.90
44509;DHT22;30214;52.246;14.408;2023-03-24T13:32:51;15.20;99.90
44509;DHT22;30214;52.246;14.408;2023-03-24T13:35:38;15.20;99.90
44509;DHT22;30214;52.246;14.408;2023-03-24T13:38:18;15.20;99.90
44509;DHT22;30214;52.246;14.408;2023-03-24T13:40:51;15.30;99.90
44509;DHT22;30214;52.246;14.408;2023-03-24T13:43:21;15.30;99.90
44509;DHT22;30214;52.246;14.408;2023-03-24T13:45:50;15.30;99.90
44509;DHT22;30214;52.246;14.408;2023-03-24T13:48:28;15.20;99.90
44509;DHT22;30214;52.246;14.408;2023-03-24T13:51:00;15.10;99.90
44509;DHT22;30214;52.246;14.408;2023-03-24T13:53:36;15.10;99.90
44509;DHT22;30214;52.246;14.408;2023-03-24T13:56:06;15.00;99.90
44509;DHT22;30214;52.246;14.408;2023-03-24T13:58:47;15.00;99.90
44509;DHT22;30214;52.246;14.408;2023-03-24T14:01:28;14.90;99.90
44509;DHT22;30214;52.246;14.408;2023-03-24T14:04:26;14.90;99.90
44509;DHT22;30214;52.246;14.408;2023-03-24T14:06:55;14.90;99.90
44509;DHT22;30214;52.246;14.408;2023-03-24T14:09:26;15.00;99.90
44509;DHT22;30214;52.246;14.408;2023-03-24T14:12:15;15.00;99.90
44509;DHT22;30214;52.246;14.408;2023-03-24T14:15:18;15.20;99.90
44509;DHT22;30214;52.246;14.408;2023-03-24T14:17:48;15.10;99.90
44509;DHT22;30214;52.246;14.408;2023-03-24T14:20:38;15.10;99.90
44509;DHT22;30214;52.246;14.408;2023-03-24T14:23:22;15.10;99.90
44509;DHT22;30214;52.246;14.408;2023-03-24T14:25:54;15.20;99.90
44509;DHT22;30214;52.246;14.408;2023-03-24T14:28:29;15.10;99.90
44509;DHT22;30214;52.246;14.408;2023-03-24T14:31:13;15.00;99.90
44509;DHT22;30214;52.246;14.408;2023-03-24T14:33:58;14.90;99.90
44509;DHT22;30214;52.246;14.408;2023-03-24T14:36:31;14.90;99.90
44509;DHT22;30214;52.246;14.408;2023-03-24T14:39:16;15.00;99.90
44509;DHT22;30214;52.246;14.408;2023-03-24T14:41:52;15.00;97.60
44509;DHT22;30214;52.246;14.408;2023-03-24T14:44:53;14.90;97.80
44509;DHT22;30214;52.246;14.408;2023-03-24T14:47:24;14.80;97.20
44509;DHT22;30214;52.246;14.408;2023-03-24T14:49:53;14.70;97.80
44509;DHT22;30214;52.246;14.408;2023-03-24T14:52:24;14.40;99.90
44509;DHT22;30214;52.246;14.408;2023-03-24T14:54:57;14.20;99.90
44509;DHT22;30214;52.246;14.408;2023-03-24T14:57:29;13.90;99.90
44509;DHT22;30214;52.246;14.408;2023-03-24T15:00:00;13.80;99.90
44509;DHT22;30214;52.246;14.408;2023-03-24T15:02:37;13.70;99.90
44509;DHT22;30214;52.246;14.408;2023-03-24T15:05:27;13.70;99.90
44509;DHT22;30214;52.246;14.408;2023-03-24T15:08:01;13.70;99.90
44509;DHT22;30214;52.246;14.408;2023-03-24T15:10:36;13.70;99.90
44509;DHT22;30214;52.246;14.408;2023-03-24T15:13:32;13.60;99.90
44509;DHT22;30214;52.246;14.408;2023-03-24T15:16:21;13.50;99.90
44509;DHT22;30214;52.246;14.408;2023-03-24T15:18:52;13.60;99.90
44509;DHT22;30214;52.246;14.408;2023-03-24T15:21:25;13.70;99.90
44509;DHT22;30214;52.246;14.408;2023-03-24T15:23:55;13.70;99.90
44509;DHT22;30214;52.246;14.408;2023-03-24T15:26:23;13.70;99.90
44509;DHT22;30214;52.246;14.408;2023-03-24T15:29:00;13.60;99.90
44509;DHT22;30214;52.246;14.408;2023-03-24T15:31:28;13.60;99.90
44509;DHT22;30214;52.246;14.408;2023-03-24T15:34:07;13.50;99.90
44509;DHT22;30214;52.246;14.408;2023-03-24T15:36:53;13.40;99.90
44509;DHT22;30214;52.246;14.408;2023-03-24T15:39:26;13.40;99.90
44509;DHT22;30214;52.246;14.408;2023-03-24T15:41:55;13.20;99.90
44509;DHT22;30214;52.246;14.408;2023-03-24T15:44:27;13.10;99.90
44509;DHT22;30214;52.246;14.408;2023-03-24T15:46:57;13.00;99.90
44509;DHT22;30214;52.246;14.408;2023-03-24T15:49:29;13.00;99.90
44509;DHT22;30214;52.246;14.408;2023-03-24T15:51:58;13.00;99.90
44509;DHT22;30214;52.246;14.408;2023-03-24T15:54:29;13.00;99.90
44509;DHT22;30214;52.246;14.408;2023-03-24T15:57:02;13.00;99.90
44509;DHT22;30214;52.246;14.408;2023-03-24T15:59:47;13.00;99.90
44509;DHT22;30214;52.246;14.408;2023-03-24T16:02:27;12.90;99.90
44509;DHT22;30214;52.246;14.408;2023-03-24T16:04:59;12.90;99.90
44509;DHT22;30214;52.246;14.408;2023-03-24T16:07:30;13.10;99.90
44509;DHT22;30214;52.246;14.408;2023-03-24T16:09:59;13.00;99.90
44509;DHT22;30214;52.246;14.408;2023-03-24T16:12:34;13.00;99.90